createdAt,value
2022-12-13T00:00:14.948Z,-3.58
2022-12-13T00:02:41.627Z,-3.50
2022-12-13T00:05:08.341Z,-3.75
2022-12-13T00:07:35.223Z,-3.92
2022-12-13T00:10:01.944Z,-3.76
2022-12-13T00:12:28.438Z,-3.72
2022-12-13T00:14:54.922Z,-3.81
2022-12-13T00:17:21.418Z,-3.81
2022-12-13T00:19:47.902Z,-3.92
2022-12-13T00:22:14.517Z,-3.88
2022-12-13T00:24:45.867Z,-3.82
2022-12-13T00:27:12.570Z,-3.71
2022-12-13T00:29:39.038Z,-3.74
2022-12-13T00:32:05.553Z,-3.81
2022-12-13T00:34:32.162Z,-3.72
2022-12-13T00:36:59.242Z,-3.87
2022-12-13T00:39:26.057Z,-3.83
2022-12-13T00:41:52.531Z,-3.75
2022-12-13T00:44:19.987Z,-3.62
2022-12-13T00:46:46.740Z,-3.51
2022-12-13T00:49:13.361Z,-3.59
2022-12-13T00:51:39.876Z,-3.55
2022-12-13T00:54:06.468Z,-3.58
2022-12-13T00:56:33.268Z,-3.61
2022-12-13T00:58:59.935Z,-3.58
2022-12-13T01:01:27.655Z,-3.67
2022-12-13T01:03:54.609Z,-3.70
2022-12-13T01:06:22.279Z,-3.71
2022-12-13T01:08:48.762Z,-3.84
2022-12-13T01:11:15.247Z,-3.88
2022-12-13T01:13:41.785Z,-3.95
2022-12-13T01:16:08.974Z,-3.83
2022-12-13T01:18:35.880Z,-3.86
2022-12-13T01:21:02.339Z,-3.87
2022-12-13T01:23:29.128Z,-3.96
2022-12-13T01:25:55.897Z,-3.90
2022-12-13T01:28:22.738Z,-3.86
2022-12-13T01:30:59.087Z,-4.01
2022-12-13T01:33:25.850Z,-3.97
2022-12-13T01:35:52.575Z,-4.03
2022-12-13T01:38:19.282Z,-4.12
2022-12-13T01:40:46.598Z,-4.02
2022-12-13T01:43:14.697Z,-3.92
2022-12-13T01:45:41.639Z,-3.90
2022-12-13T01:48:09.744Z,-3.84
2022-12-13T01:50:37.547Z,-3.94
2022-12-13T01:53:04.566Z,-3.93
2022-12-13T01:55:31.501Z,-4.01
2022-12-13T01:57:58.354Z,-4.02
2022-12-13T02:00:25.194Z,-3.94
2022-12-13T02:02:51.710Z,-4.07
2022-12-13T02:05:31.973Z,-3.99
2022-12-13T02:07:58.750Z,-4.00
2022-12-13T02:10:25.386Z,-3.99
2022-12-13T02:12:51.862Z,-4.02
2022-12-13T02:15:18.879Z,-4.07
2022-12-13T02:17:53.282Z,-4.05
2022-12-13T02:20:25.783Z,-4.04
2022-12-13T02:23:00.352Z,-3.98
2022-12-13T02:25:59.441Z,-3.99
2022-12-13T02:28:31.619Z,-4.05
2022-12-13T02:31:18.914Z,-4.20
2022-12-13T02:33:53.110Z,-4.09
2022-12-13T02:36:38.935Z,-4.03
2022-12-13T02:39:14.613Z,-3.99
2022-12-13T02:41:51.298Z,-4.01
2022-12-13T02:44:22.363Z,-4.07
2022-12-13T02:46:52.664Z,-4.13
2022-12-13T02:49:19.750Z,-4.21
2022-12-13T02:51:46.229Z,-4.28
2022-12-13T02:54:12.944Z,-4.35
2022-12-13T02:56:39.417Z,-4.30
2022-12-13T02:59:08.740Z,-4.43
2022-12-13T03:01:53.947Z,-4.35
2022-12-13T03:05:02.501Z,-4.30
2022-12-13T03:07:29.746Z,-4.26
2022-12-13T03:09:59.202Z,-4.20
2022-12-13T03:12:53.793Z,-4.18
2022-12-13T03:15:35.703Z,-4.26
2022-12-13T03:18:04.279Z,-4.38
2022-12-13T03:20:30.762Z,-4.40
2022-12-13T03:22:57.758Z,-4.33
2022-12-13T03:25:31.847Z,-4.48
2022-12-13T03:28:01.222Z,-4.51
2022-12-13T03:30:29.012Z,-4.48
2022-12-13T03:32:55.756Z,-4.43
2022-12-13T03:35:22.848Z,-4.48
2022-12-13T03:37:49.568Z,-4.53
2022-12-13T03:40:16.126Z,-4.45
2022-12-13T03:42:42.618Z,-4.48
2022-12-13T03:45:09.329Z,-4.54
2022-12-13T03:47:36.593Z,-4.50
2022-12-13T03:50:25.766Z,-4.55
2022-12-13T03:52:51.929Z,-4.54
2022-12-13T03:55:18.788Z,-4.57
2022-12-13T03:57:45.300Z,-4.52
2022-12-13T04:00:12.088Z,-4.62
2022-12-13T04:02:42.171Z,-4.60
2022-12-13T04:05:09.198Z,-4.55
2022-12-13T04:07:35.686Z,-4.52
2022-12-13T04:10:02.965Z,-4.68
2022-12-13T04:13:08.018Z,-4.66
2022-12-13T04:15:34.508Z,-4.73
2022-12-13T04:18:01.072Z,-4.72
2022-12-13T04:20:27.595Z,-4.57
2022-12-13T04:22:54.111Z,-4.53
2022-12-13T04:25:20.680Z,-4.59
2022-12-13T04:27:47.232Z,-4.62
2022-12-13T04:30:13.745Z,-4.54
2022-12-13T04:32:40.278Z,-4.52
2022-12-13T04:35:06.828Z,-4.47
2022-12-13T04:37:33.388Z,-4.45
2022-12-13T04:40:00.880Z,-4.49
2022-12-13T04:42:27.832Z,-4.50
2022-12-13T04:44:54.428Z,-4.49
2022-12-13T04:47:20.927Z,-4.45
2022-12-13T04:49:48.032Z,-4.50
2022-12-13T04:52:22.439Z,-4.51
2022-12-13T04:54:55.672Z,-4.61
2022-12-13T04:57:22.675Z,-4.57
2022-12-13T04:59:49.206Z,-4.53
2022-12-13T05:02:23.522Z,-4.66
2022-12-13T05:04:53.881Z,-4.57
2022-12-13T05:07:22.932Z,-4.55
2022-12-13T05:09:49.534Z,-4.74
2022-12-13T05:12:22.481Z,-4.69
2022-12-13T05:14:50.608Z,-4.79
2022-12-13T05:17:17.103Z,-4.86
2022-12-13T05:19:43.605Z,-4.86
2022-12-13T05:22:19.723Z,-4.91
2022-12-13T05:24:47.495Z,-4.88
2022-12-13T05:27:25.409Z,-4.92
2022-12-13T05:30:05.311Z,-4.97
2022-12-13T05:32:44.099Z,-4.88
2022-12-13T05:35:22.459Z,-4.99
2022-12-13T05:37:53.806Z,-4.98
2022-12-13T05:40:22.146Z,-4.89
2022-12-13T05:42:48.639Z,-4.88
2022-12-13T05:45:15.881Z,-4.85
2022-12-13T05:47:42.645Z,-4.88
2022-12-13T05:50:13.290Z,-4.72
2022-12-13T05:52:39.998Z,-4.82
2022-12-13T05:55:06.806Z,-4.89
2022-12-13T05:57:34.198Z,-4.89
2022-12-13T06:00:00.841Z,-5.01
2022-12-13T06:02:28.107Z,-5.16
2022-12-13T06:04:54.761Z,-5.16
2022-12-13T06:07:21.236Z,-5.10
2022-12-13T06:09:47.804Z,-5.11
2022-12-13T06:12:31.936Z,-5.04
2022-12-13T06:15:00.816Z,-5.09
2022-12-13T06:17:31.960Z,-5.14
2022-12-13T06:19:58.479Z,-5.28
2022-12-13T06:22:25.582Z,-5.15
2022-12-13T06:24:52.869Z,-5.22
2022-12-13T06:27:21.155Z,-5.38
2022-12-13T06:29:47.693Z,-5.25
2022-12-13T06:32:14.211Z,-5.23
2022-12-13T06:34:40.705Z,-5.11
2022-12-13T06:37:08.103Z,-5.14
2022-12-13T06:39:34.658Z,-5.14
2022-12-13T06:42:02.041Z,-5.15
2022-12-13T06:44:28.788Z,-5.04
2022-12-13T06:47:11.740Z,-5.09
2022-12-13T06:49:39.790Z,-5.05
2022-12-13T06:52:06.508Z,-5.06
2022-12-13T06:54:33.405Z,-4.96
2022-12-13T06:56:59.893Z,-4.86
2022-12-13T06:59:26.357Z,-4.97
2022-12-13T07:01:52.871Z,-5.10
2022-12-13T07:04:28.795Z,-5.01
2022-12-13T07:07:01.295Z,-4.98
2022-12-13T07:09:29.474Z,-5.02
2022-12-13T07:11:55.964Z,-5.04
2022-12-13T07:14:22.434Z,-5.02
2022-12-13T07:16:48.918Z,-5.13
2022-12-13T07:19:24.013Z,-5.02
2022-12-13T07:21:51.486Z,-4.98
2022-12-13T07:24:18.144Z,-4.91
2022-12-13T07:26:44.607Z,-4.92
2022-12-13T07:29:11.166Z,-4.74
2022-12-13T07:31:37.895Z,-4.81
2022-12-13T07:34:04.577Z,-4.88
2022-12-13T07:36:31.079Z,-4.98
2022-12-13T07:38:57.684Z,-4.85
2022-12-13T07:41:24.791Z,-4.74
2022-12-13T07:43:55.644Z,-4.57
2022-12-13T07:46:32.071Z,-4.53
2022-12-13T07:49:01.467Z,-4.49
2022-12-13T07:51:28.403Z,-4.37
2022-12-13T07:53:54.941Z,-4.36
2022-12-13T07:56:21.414Z,-4.23
2022-12-13T07:58:47.950Z,-4.13
2022-12-13T08:01:14.428Z,-4.10
2022-12-13T08:03:40.944Z,-4.12
2022-12-13T08:06:08.741Z,-3.99
2022-12-13T08:08:35.351Z,-3.91
2022-12-13T08:11:05.901Z,-3.92
2022-12-13T08:13:32.481Z,-4.14
2022-12-13T08:16:03.024Z,-4.03
2022-12-13T08:18:29.745Z,-3.93
2022-12-13T08:21:00.231Z,-3.89
2022-12-13T08:23:27.042Z,-3.91
2022-12-13T08:25:56.750Z,-3.79
2022-12-13T08:28:23.697Z,-3.56
2022-12-13T08:30:50.420Z,-3.53
2022-12-13T08:33:17.276Z,-3.73
2022-12-13T08:35:44.019Z,-3.60
2022-12-13T08:38:11.081Z,-3.45
2022-12-13T08:40:37.792Z,-3.40
2022-12-13T08:43:05.291Z,-3.32
2022-12-13T08:45:34.219Z,-3.20
2022-12-13T08:48:00.992Z,-3.16
2022-12-13T08:50:27.919Z,-3.13
2022-12-13T08:52:54.392Z,-3.21
2022-12-13T08:55:31.981Z,-3.06
2022-12-13T08:58:01.235Z,-3.04
2022-12-13T09:00:28.063Z,-3.11
2022-12-13T09:02:57.407Z,-2.90
2022-12-13T09:05:33.080Z,-2.88
2022-12-13T09:08:02.999Z,-2.76
2022-12-13T09:10:30.070Z,-2.87
2022-12-13T09:13:11.866Z,-2.72
2022-12-13T09:15:51.714Z,-2.58
2022-12-13T09:18:24.370Z,-2.58
2022-12-13T09:20:52.652Z,-2.37
2022-12-13T09:23:23.688Z,-2.25
2022-12-13T09:26:05.211Z,-2.19
2022-12-13T09:28:32.947Z,-2.31
2022-12-13T09:30:59.909Z,-2.05
2022-12-13T09:33:30.046Z,-2.03
2022-12-13T09:35:57.575Z,-1.93
2022-12-13T09:38:24.161Z,-1.83
2022-12-13T09:40:58.441Z,-1.81
2022-12-13T09:43:32.144Z,-1.76
2022-12-13T09:46:01.061Z,-1.84
2022-12-13T09:48:28.381Z,-1.62
2022-12-13T09:51:17.203Z,-1.80
2022-12-13T09:53:46.907Z,-1.83
2022-12-13T09:56:13.455Z,-1.87
2022-12-13T09:58:39.972Z,-1.68
2022-12-13T10:01:06.626Z,-1.52
2022-12-13T10:03:33.190Z,-1.59
2022-12-13T10:06:00.315Z,-1.51
2022-12-13T10:08:35.930Z,-1.43
2022-12-13T10:11:02.422Z,-1.52
2022-12-13T10:13:42.472Z,-1.45
2022-12-13T10:16:23.317Z,-1.39
2022-12-13T10:18:50.766Z,-1.40
2022-12-13T10:21:35.810Z,-1.58
2022-12-13T10:24:25.247Z,-1.42
2022-12-13T10:26:52.033Z,-1.45
2022-12-13T10:29:18.655Z,-1.45
2022-12-13T10:31:45.851Z,-1.39
2022-12-13T10:34:30.788Z,-1.28
2022-12-13T10:36:59.635Z,-1.40
2022-12-13T10:39:40.071Z,-1.36
2022-12-13T10:42:12.095Z,-1.14
2022-12-13T10:44:38.602Z,-1.23
2022-12-13T10:47:10.976Z,-1.09
2022-12-13T10:49:52.110Z,-1.16
2022-12-13T10:52:31.143Z,-1.04
2022-12-13T10:55:01.269Z,-0.85
2022-12-13T10:57:28.030Z,-0.90
2022-12-13T10:59:54.510Z,-0.84
2022-12-13T11:02:27.179Z,-0.77
2022-12-13T11:04:53.780Z,-0.73
2022-12-13T11:07:31.064Z,-0.54
2022-12-13T11:10:05.481Z,-0.69
2022-12-13T11:12:32.611Z,-0.68
2022-12-13T11:14:59.029Z,-0.60
2022-12-13T11:17:26.729Z,-0.54
2022-12-13T11:19:54.110Z,-0.47
2022-12-13T11:22:38.442Z,-0.39
2022-12-13T11:25:08.917Z,-0.43
2022-12-13T11:27:51.326Z,-0.42
2022-12-13T11:30:27.354Z,-0.34
2022-12-13T11:33:20.319Z,-0.42
2022-12-13T11:35:55.098Z,-0.41
2022-12-13T11:38:22.557Z,-0.52
2022-12-13T11:40:49.849Z,-0.55
2022-12-13T11:43:22.947Z,-0.35
2022-12-13T11:45:52.574Z,-0.49
2022-12-13T11:48:24.465Z,-0.38
2022-12-13T11:50:51.841Z,-0.16
2022-12-13T11:53:31.770Z,-0.01
2022-12-13T11:56:11.023Z,0.16
2022-12-13T11:59:02.319Z,0.15
2022-12-13T12:01:38.260Z,0.24
2022-12-13T12:04:19.649Z,0.06
2022-12-13T12:06:54.427Z,0.05
2022-12-13T12:09:21.068Z,0.15
2022-12-13T12:11:56.626Z,0.10
2022-12-13T12:14:24.841Z,0.18
2022-12-13T12:16:55.202Z,0.22
2022-12-13T12:19:26.060Z,0.23
2022-12-13T12:24:44.430Z,0.41
2022-12-13T12:27:13.875Z,0.44
2022-12-13T12:29:55.829Z,0.42
2022-12-13T12:32:41.485Z,0.37
2022-12-13T12:35:29.977Z,0.55
2022-12-13T12:38:20.586Z,0.39
2022-12-13T12:41:17.939Z,0.51
2022-12-13T12:43:44.740Z,0.47
2022-12-13T12:46:30.083Z,0.52
2022-12-13T12:49:16.885Z,0.44
2022-12-13T12:51:52.514Z,0.42
2022-12-13T12:54:21.794Z,0.57
2022-12-13T12:56:50.834Z,0.47
2022-12-13T12:59:17.362Z,0.41
2022-12-13T13:01:47.296Z,0.34
2022-12-13T13:04:14.263Z,0.51
2022-12-13T13:07:23.032Z,0.67
2022-12-13T13:09:50.208Z,0.56
2022-12-13T13:12:29.107Z,0.57
2022-12-13T13:14:57.156Z,0.93
2022-12-13T13:17:23.970Z,0.85
2022-12-13T13:20:01.394Z,0.90
2022-12-13T13:22:43.434Z,0.90
2022-12-13T13:25:21.921Z,0.97
2022-12-13T13:27:48.958Z,0.83
2022-12-13T13:30:15.711Z,0.95
2022-12-13T13:32:42.511Z,0.98
2022-12-13T13:35:30.750Z,0.93
2022-12-13T13:37:58.186Z,0.88
2022-12-13T13:40:32.139Z,0.66
2022-12-13T13:43:03.111Z,0.73
2022-12-13T13:45:29.588Z,0.93
2022-12-13T13:48:22.162Z,0.90
2022-12-13T13:50:51.470Z,0.83
2022-12-13T13:53:20.855Z,0.77
2022-12-13T13:55:49.725Z,0.87
2022-12-13T13:58:35.580Z,0.91
2022-12-13T14:01:21.030Z,0.97
2022-12-13T14:04:05.706Z,0.99
2022-12-13T14:06:51.240Z,0.97
2022-12-13T14:09:38.710Z,0.68
2022-12-13T14:12:24.964Z,0.83
2022-12-13T14:15:10.830Z,0.80
2022-12-13T14:17:58.857Z,0.66
2022-12-13T14:20:42.817Z,0.55
2022-12-13T14:23:09.503Z,0.76
2022-12-13T14:25:47.843Z,0.57
2022-12-13T14:28:36.497Z,0.53
2022-12-13T14:31:03.271Z,0.57
2022-12-13T14:33:30.094Z,0.40
2022-12-13T14:35:57.811Z,0.27
2022-12-13T14:38:25.616Z,0.18
2022-12-13T14:40:56.567Z,0.12
2022-12-13T14:43:27.297Z,0.15
2022-12-13T14:46:00.445Z,0.28
2022-12-13T14:48:27.896Z,0.29
2022-12-13T14:50:55.538Z,0.22
2022-12-13T14:53:24.307Z,0.26
2022-12-13T14:56:04.575Z,0.10
2022-12-13T14:58:31.365Z,0.02
2022-12-13T15:00:58.057Z,0.02
2022-12-13T15:03:26.037Z,-0.16
2022-12-13T15:05:53.821Z,0.06
2022-12-13T15:08:20.335Z,0.05
2022-12-13T15:10:48.981Z,-0.14
2022-12-13T15:13:23.767Z,-0.18
2022-12-13T15:15:54.522Z,-0.04
2022-12-13T15:18:23.809Z,-0.14
2022-12-13T15:20:53.341Z,-0.15
2022-12-13T15:23:30.331Z,-0.13
2022-12-13T15:26:32.599Z,-0.17
2022-12-13T15:29:10.325Z,-0.25
2022-12-13T15:31:37.490Z,-0.33
2022-12-13T15:34:29.033Z,-0.16
2022-12-13T15:37:01.103Z,-0.26
2022-12-13T15:39:27.846Z,-0.35
2022-12-13T15:41:54.959Z,-0.36
2022-12-13T15:44:31.814Z,-0.34
2022-12-13T15:47:11.425Z,-0.46
2022-12-13T15:49:42.146Z,-0.52
2022-12-13T15:52:14.743Z,-0.36
2022-12-13T15:54:41.741Z,-0.45
2022-12-13T15:57:15.730Z,-0.40
2022-12-13T15:59:43.487Z,-0.49
2022-12-13T16:02:30.255Z,-0.46
2022-12-13T16:05:06.753Z,-0.60
2022-12-13T16:07:35.946Z,-0.59
2022-12-13T16:10:03.052Z,-0.46
2022-12-13T16:12:32.722Z,-0.53
2022-12-13T16:15:20.406Z,-0.48
2022-12-13T16:18:19.169Z,-0.58
2022-12-13T16:20:46.517Z,-0.56
2022-12-13T16:23:26.831Z,-0.63
2022-12-13T16:26:08.538Z,-0.52
2022-12-13T16:28:35.604Z,-0.48
2022-12-13T16:31:16.289Z,-0.57
2022-12-13T16:33:43.163Z,-0.52
2022-12-13T16:36:10.255Z,-0.51
2022-12-13T16:38:39.635Z,-0.47
2022-12-13T16:41:08.729Z,-0.54
2022-12-13T16:43:40.697Z,-0.58
2022-12-13T16:47:13.038Z,-0.67
2022-12-13T16:48:54.199Z,-0.68
2022-12-13T16:51:21.112Z,-0.63
2022-12-13T16:53:47.906Z,-0.75
2022-12-13T16:56:16.536Z,-0.73
2022-12-13T16:58:49.400Z,-0.71
2022-12-13T17:01:18.115Z,-0.73
2022-12-13T17:03:44.736Z,-0.75
2022-12-13T17:06:11.264Z,-0.88
2022-12-13T17:08:37.822Z,-0.98
2022-12-13T17:11:06.668Z,-1.00
2022-12-13T17:13:33.449Z,-1.15
2022-12-13T17:16:00.191Z,-1.07
2022-12-13T17:18:27.133Z,-1.19
2022-12-13T17:20:58.106Z,-1.12
2022-12-13T17:23:26.162Z,-1.07
2022-12-13T17:25:58.517Z,-1.11
2022-12-13T17:28:25.796Z,-1.06
2022-12-13T17:30:54.613Z,-1.10
2022-12-13T17:33:21.688Z,-1.16
2022-12-13T17:35:48.259Z,-1.09
2022-12-13T17:38:14.789Z,-1.18
2022-12-13T17:40:41.312Z,-1.35
2022-12-13T17:43:08.321Z,-1.13
2022-12-13T17:45:36.569Z,-1.03
2022-12-13T17:48:03.350Z,-1.26
2022-12-13T17:50:30.287Z,-1.15
2022-12-13T17:53:00.236Z,-1.12
2022-12-13T17:55:27.819Z,-0.94
2022-12-13T17:57:59.824Z,-1.13
2022-12-13T18:00:30.814Z,-1.27
2022-12-13T18:02:57.694Z,-1.15
2022-12-13T18:05:29.511Z,-1.12
2022-12-13T18:07:56.699Z,-1.22
2022-12-13T18:10:29.696Z,-1.22
2022-12-13T18:12:57.591Z,-1.19
2022-12-13T18:15:24.197Z,-1.20
2022-12-13T18:20:37.782Z,-1.39
2022-12-13T18:23:04.416Z,-1.28
2022-12-13T18:25:30.996Z,-1.26
2022-12-13T18:28:01.024Z,-1.27
2022-12-13T18:30:28.249Z,-1.13
2022-12-13T18:32:54.855Z,-1.27
2022-12-13T18:35:21.359Z,-1.11
2022-12-13T18:37:48.257Z,-1.31
2022-12-13T18:40:14.794Z,-1.28
2022-12-13T18:42:41.379Z,-1.15
2022-12-13T18:45:08.156Z,-1.12
2022-12-13T18:47:34.693Z,-1.01
2022-12-13T18:50:01.284Z,-0.97
2022-12-13T18:52:27.888Z,-1.02
2022-12-13T18:54:54.912Z,-1.05
2022-12-13T18:57:21.971Z,-1.10
2022-12-13T18:59:54.193Z,-1.11
2022-12-13T19:02:21.975Z,-1.08
2022-12-13T19:04:55.098Z,-1.15
2022-12-13T19:07:22.392Z,-1.18
2022-12-13T19:09:54.748Z,-1.09
2022-12-13T19:12:21.606Z,-1.26
2022-12-13T19:14:54.731Z,-1.17
2022-12-13T19:17:21.665Z,-1.26
2022-12-13T19:19:48.482Z,-1.16
2022-12-13T19:22:15.969Z,-1.18
2022-12-13T19:24:42.666Z,-1.15
2022-12-13T19:27:09.236Z,-1.17
2022-12-13T19:29:35.945Z,-1.22
2022-12-13T19:32:02.519Z,-1.39
2022-12-13T19:34:29.078Z,-1.26
2022-12-13T19:36:59.189Z,-1.20
2022-12-13T19:39:32.364Z,-1.19
2022-12-13T19:41:58.992Z,-1.19
2022-12-13T19:44:25.593Z,-1.11
2022-12-13T19:46:52.618Z,-1.08
2022-12-13T19:49:19.504Z,-1.17
2022-12-13T19:51:46.131Z,-1.28
2022-12-13T19:54:12.658Z,-1.25
2022-12-13T19:56:39.180Z,-1.21
2022-12-13T19:59:05.817Z,-1.33
2022-12-13T20:01:32.845Z,-1.21
2022-12-13T20:03:59.407Z,-1.23
2022-12-13T20:06:25.956Z,-1.24
2022-12-13T20:08:52.891Z,-1.31
2022-12-13T20:11:20.627Z,-1.25
2022-12-13T20:13:47.762Z,-1.25
2022-12-13T20:16:15.783Z,-1.37
2022-12-13T20:18:42.379Z,-1.14
2022-12-13T20:21:11.985Z,-1.19
2022-12-13T20:23:39.851Z,-1.17
2022-12-13T20:26:07.503Z,-1.24
2022-12-13T20:28:34.097Z,-1.31
2022-12-13T20:31:11.026Z,-1.17
2022-12-13T20:33:38.432Z,-1.25
2022-12-13T20:38:53.007Z,-1.34
2022-12-13T20:41:19.525Z,-1.42
2022-12-13T20:43:46.077Z,-1.37
2022-12-13T20:46:15.390Z,-1.18
2022-12-13T20:48:42.945Z,-1.26
2022-12-13T20:51:09.990Z,-1.33
2022-12-13T20:53:38.063Z,-1.40
2022-12-13T20:56:05.326Z,-1.42
2022-12-13T20:58:36.831Z,-1.36
2022-12-13T21:01:07.410Z,-1.35
2022-12-13T21:03:34.326Z,-1.33
2022-12-13T21:06:00.919Z,-1.31
2022-12-13T21:08:45.799Z,-1.31
2022-12-13T21:11:24.626Z,-1.46
2022-12-13T21:13:59.021Z,-1.51
2022-12-13T21:16:28.690Z,-1.45
2022-12-13T21:18:56.255Z,-1.49
2022-12-13T21:21:23.410Z,-1.31
2022-12-13T21:23:50.067Z,-1.36
2022-12-13T21:26:16.898Z,-1.38
2022-12-13T21:28:43.823Z,-1.35
2022-12-13T21:31:12.030Z,-1.23
2022-12-13T21:33:39.101Z,-1.20
2022-12-13T21:36:10.032Z,-1.39
2022-12-13T21:38:36.602Z,-1.17
2022-12-13T21:41:03.131Z,-1.25
2022-12-13T21:43:48.294Z,-1.45
2022-12-13T21:46:26.015Z,-1.35
2022-12-13T21:49:05.004Z,-1.39
2022-12-13T21:51:34.559Z,-1.58
2022-12-13T21:54:01.191Z,-1.59
2022-12-13T21:56:47.580Z,-1.65
2022-12-13T21:59:18.042Z,-1.50
2022-12-13T22:02:04.026Z,-1.54
2022-12-13T22:04:30.941Z,-1.52
2022-12-13T22:06:57.504Z,-1.49
2022-12-13T22:09:24.184Z,-1.41
2022-12-13T22:11:50.786Z,-1.42
2022-12-13T22:14:17.450Z,-1.36
2022-12-13T22:16:44.293Z,-1.28
2022-12-13T22:19:14.199Z,-1.18
2022-12-13T22:21:40.977Z,-1.33
2022-12-13T22:24:08.282Z,-1.30
2022-12-13T22:26:35.878Z,-1.16
2022-12-13T22:29:02.639Z,-1.17
2022-12-13T22:31:29.995Z,-1.20
2022-12-13T22:33:59.576Z,-1.31
2022-12-13T22:36:26.204Z,-1.38
2022-12-13T22:38:53.227Z,-1.23
2022-12-13T22:41:19.781Z,-1.20
2022-12-13T22:43:46.482Z,-1.27
2022-12-13T22:46:16.597Z,-1.29
2022-12-13T22:48:43.152Z,-1.23
2022-12-13T22:51:12.004Z,-1.22
2022-12-13T22:53:39.559Z,-1.07
2022-12-13T22:56:07.256Z,-1.20
2022-12-13T22:58:33.940Z,-1.03
2022-12-13T23:01:30.111Z,-1.28
2022-12-13T23:03:56.884Z,-1.03
2022-12-13T23:06:27.437Z,-1.07
2022-12-13T23:08:55.240Z,-1.13
2022-12-13T23:11:40.976Z,-0.96
2022-12-13T23:14:11.673Z,-0.99
2022-12-13T23:16:39.221Z,-1.00
2022-12-13T23:19:40.492Z,-0.94
2022-12-13T23:21:57.338Z,-1.00
2022-12-13T23:24:27.348Z,-1.05
2022-12-13T23:26:54.071Z,-0.96
2022-12-13T23:29:20.613Z,-0.93
2022-12-13T23:31:48.746Z,-0.93
2022-12-13T23:34:18.614Z,-1.01
2022-12-13T23:36:49.756Z,-1.02
2022-12-13T23:39:18.813Z,-0.94
2022-12-13T23:41:45.859Z,-0.85
2022-12-13T23:44:12.386Z,-0.93
2022-12-13T23:46:38.911Z,-1.00
2022-12-13T23:49:05.812Z,-0.91
2022-12-13T23:51:32.863Z,-0.80
2022-12-13T23:53:59.680Z,-0.86
2022-12-13T23:56:26.244Z,-0.75
2022-12-13T23:58:53.199Z,-0.72
